Time;durP1;ratioP1;P1;durP2;ratioP2;P2;SDS_P1;SDS_P2;PMS_P1;PMS_P2;Temp;Humidity;BMP_temperature;BMP_pressure;BME280_temperature;BME280_humidity;BME280_pressure;Samples;Min_cycle;Max_cycle;Signal;HPM_P1;HPM_P2
2023/11/15 00:01:56;;;;;;;2.40;1.70;;;22.50;56.60;;;;;;10373604;28;20271;-45
2023/11/15 00:07:01;;;;;;;2.05;1.40;;;22.50;56.60;;;;;;10398561;28;20253;-45
2023/11/15 00:12:06;;;;;;;2.17;1.30;;;22.50;56.60;;;;;;10388746;28;20208;-46
2023/11/15 00:17:11;;;;;;;3.50;1.30;;;22.50;56.60;;;;;;10385584;28;20216;-44
2023/11/15 00:22:16;;;;;;;1.65;1.15;;;22.50;56.60;;;;;;10380530;28;20204;-45
2023/11/15 00:27:19;;;;;;;2.85;1.25;;;22.50;56.60;;;;;;10384029;28;20224;-46
2023/11/15 00:32:23;;;;;;;1.52;1.30;;;22.50;56.60;;;;;;10372705;28;20263;-44
2023/11/15 00:37:28;;;;;;;1.75;1.40;;;22.50;56.60;;;;;;10389853;28;20754;-47
2023/11/15 00:42:32;;;;;;;1.30;1.20;;;22.50;56.60;;;;;;10374815;28;20204;-46
2023/11/15 00:47:36;;;;;;;2.45;1.17;;;22.50;56.60;;;;;;10396643;28;20762;-44
2023/11/15 00:52:41;;;;;;;2.03;1.00;;;22.50;56.60;;;;;;10396289;28;20236;-45
2023/11/15 00:57:45;;;;;;;1.85;1.10;;;22.50;56.60;;;;;;10379034;28;20294;-45
2023/11/15 01:02:48;;;;;;;1.75;1.15;;;22.50;56.60;;;;;;10380403;28;20586;-45
2023/11/15 01:07:54;;;;;;;1.70;1.20;;;22.50;56.60;;;;;;10387603;28;20275;-44
2023/11/15 01:13:01;;;;;;;1.60;1.13;;;22.50;56.60;;;;;;10373130;28;20692;-46
2023/11/15 01:18:07;;;;;;;2.08;1.20;;;22.50;56.60;;;;;;10386544;28;20216;-45
2023/11/15 01:23:13;;;;;;;1.20;1.10;;;22.50;56.60;;;;;;10380531;28;20193;-45
2023/11/15 01:28:17;;;;;;;1.52;1.13;;;22.50;56.60;;;;;;10372294;28;20229;-46
2023/11/15 01:33:20;;;;;;;2.15;1.15;;;22.50;56.60;;;;;;10385054;28;20612;-47
2023/11/15 01:38:25;;;;;;;1.90;1.17;;;22.50;56.60;;;;;;10383979;28;20221;-45
2023/11/15 01:43:29;;;;;;;1.83;1.17;;;22.50;56.60;;;;;;10386328;28;20660;-46
2023/11/15 01:48:33;;;;;;;1.98;1.40;;;22.50;56.60;;;;;;10396318;28;20220;-45
2023/11/15 01:53:39;;;;;;;1.63;1.00;;;22.50;56.60;;;;;;10382672;28;20247;-46
2023/11/15 01:58:43;;;;;;;2.38;1.10;;;22.50;56.60;;;;;;10380763;28;20213;-46
2023/11/15 02:03:47;;;;;;;1.75;0.90;;;22.50;56.60;;;;;;10375348;28;20208;-45
2023/11/15 02:08:52;;;;;;;2.20;1.15;;;22.50;56.60;;;;;;10380523;28;20229;-45
2023/11/15 02:13:55;;;;;;;1.25;0.93;;;22.50;56.60;;;;;;10386178;28;20200;-45
2023/11/15 02:18:59;;;;;;;2.17;1.50;;;22.50;56.60;;;;;;10387628;28;20225;-45
2023/11/15 02:24:05;;;;;;;1.83;1.30;;;22.50;56.60;;;;;;10364262;28;20924;-46
2023/11/15 02:29:10;;;;;;;2.20;1.60;;;22.50;56.60;;;;;;10379919;28;20228;-46
2023/11/15 02:34:14;;;;;;;1.50;1.13;;;22.50;56.60;;;;;;10368034;28;20222;-45
2023/11/15 02:39:19;;;;;;;2.45;1.55;;;22.50;56.60;;;;;;10375711;28;20217;-45
2023/11/15 02:44:23;;;;;;;1.10;0.90;;;22.50;56.60;;;;;;10385792;28;20246;-44
2023/11/15 02:49:27;;;;;;;1.73;1.00;;;22.50;57.20;;;;;;10396636;28;20864;-43
2023/11/15 02:54:31;;;;;;;1.92;1.02;;;22.50;56.60;;;;;;10384101;28;20204;-44
2023/11/15 02:59:35;;;;;;;3.55;1.20;;;22.50;56.60;;;;;;10377969;28;20212;-46
2023/11/15 03:04:39;;;;;;;1.83;1.05;;;22.50;56.60;;;;;;10382660;28;20197;-46
2023/11/15 03:09:44;;;;;;;2.20;1.50;;;22.50;57.20;;;;;;10387766;28;20248;-47
2023/11/15 03:14:48;;;;;;;2.22;1.10;;;22.50;56.60;;;;;;10388110;28;20230;-47
2023/11/15 03:19:56;;;;;;;1.58;1.02;;;22.50;56.60;;;;;;10375484;28;20228;-47
2023/11/15 03:25:01;;;;;;;2.03;1.30;;;22.50;56.60;;;;;;10377105;28;20209;-46
2023/11/15 03:30:07;;;;;;;2.17;1.15;;;22.50;56.60;;;;;;10382171;28;20244;-46
2023/11/15 03:35:11;;;;;;;3.40;1.40;;;22.50;56.60;;;;;;10379039;28;20243;-44
2023/11/15 03:40:19;;;;;;;1.20;1.10;;;22.50;56.60;;;;;;10379723;28;21587;-45
2023/11/15 03:45:23;;;;;;;1.90;1.17;;;22.50;56.60;;;;;;10376933;28;20225;-44
2023/11/15 03:50:26;;;;;;;2.15;1.30;;;22.50;56.60;;;;;;10373900;28;20673;-49
2023/11/15 03:55:31;;;;;;;9.95;1.90;;;22.50;56.70;;;;;;10387429;28;20574;-47
2023/11/15 04:00:35;;;;;;;12.50;2.05;;;22.60;56.70;;;;;;10384081;28;20254;-45
2023/11/15 04:05:38;;;;;;;11.05;2.35;;;22.70;57.30;;;;;;10395712;28;20229;-47
2023/11/15 04:10:43;;;;;;;8.50;1.80;;;22.70;56.60;;;;;;10376391;28;20213;-45
2023/11/15 04:15:47;;;;;;;7.38;1.75;;;22.80;56.70;;;;;;10395654;28;20600;-57
2023/11/15 04:20:50;;;;;;;3.05;1.30;;;22.80;56.60;;;;;;10383999;28;20262;-51
2023/11/15 04:25:58;;;;;;;4.65;1.35;;;22.90;56.60;;;;;;10371419;28;20224;-53
2023/11/15 04:31:02;;;;;;;3.95;1.40;;;22.90;56.50;;;;;;10379623;28;20201;-47
2023/11/15 04:36:07;;;;;;;3.05;1.60;;;22.90;56.50;;;;;;10374952;28;20704;-52
2023/11/15 04:41:12;;;;;;;3.80;1.33;;;23.00;56.50;;;;;;10378032;28;20669;-53
2023/11/15 04:46:16;;;;;;;5.35;1.60;;;23.00;56.50;;;;;;10379801;28;20279;-49
2023/11/15 04:51:19;;;;;;;5.63;1.98;;;23.00;56.40;;;;;;10374483;28;20232;-51
2023/11/15 04:56:25;;;;;;;3.13;1.60;;;23.00;56.40;;;;;;10377895;28;20216;-52
2023/11/15 05:01:28;;;;;;;2.10;1.23;;;23.00;56.40;;;;;;10379432;28;20251;-57
2023/11/15 05:06:33;;;;;;;4.75;1.40;;;23.10;56.50;;;;;;10380880;28;20284;-51
2023/11/15 05:11:37;;;;;;;2.78;1.30;;;23.10;56.50;;;;;;10379173;28;20246;-47
2023/11/15 05:16:41;;;;;;;4.85;1.55;;;23.10;57.10;;;;;;10366982;28;20213;-53
2023/11/15 05:21:48;;;;;;;3.25;1.50;;;23.00;56.40;;;;;;10365078;28;20205;-50
2023/11/15 05:26:52;;;;;;;3.03;1.42;;;23.00;56.40;;;;;;10371374;28;20315;-51
2023/11/15 05:31:56;;;;;;;3.47;1.52;;;23.10;57.00;;;;;;10375862;28;20197;-49
2023/11/15 05:36:59;;;;;;;4.90;1.90;;;23.10;56.40;;;;;;10368432;28;20229;-50
2023/11/15 05:42:07;;;;;;;2.92;1.60;;;23.10;56.40;;;;;;10378034;28;20205;-44
2023/11/15 05:47:11;;;;;;;4.28;1.25;;;23.10;56.40;;;;;;10357230;28;20278;-51
2023/11/15 05:52:15;;;;;;;4.90;1.50;;;23.20;56.50;;;;;;10365662;28;20213;-54
2023/11/15 05:57:20;;;;;;;4.07;1.75;;;23.10;56.40;;;;;;10382508;28;20216;-50
2023/11/15 06:02:24;;;;;;;2.72;1.88;;;23.10;56.40;;;;;;10370157;28;20619;-49
2023/11/15 06:07:27;;;;;;;4.50;1.70;;;23.00;56.30;;;;;;10385389;28;20607;-49
2023/11/15 06:12:35;;;;;;;3.97;2.03;;;23.00;56.40;;;;;;10386035;28;20667;-52
2023/11/15 06:17:39;;;;;;;4.35;1.92;;;23.00;56.40;;;;;;10378908;28;20213;-49
2023/11/15 06:22:43;;;;;;;2.97;1.55;;;23.00;56.40;;;;;;10371810;28;20205;-46
2023/11/15 06:27:48;;;;;;;3.40;1.55;;;23.00;56.40;;;;;;10382738;28;20252;-49
2023/11/15 06:32:52;;;;;;;4.03;2.00;;;23.00;56.40;;;;;;10379620;28;20697;-43
2023/11/15 06:37:56;;;;;;;5.28;1.50;;;23.10;56.40;;;;;;10371248;28;20271;-51
2023/11/15 06:43:01;;;;;;;4.15;1.65;;;23.10;56.40;;;;;;10373547;28;20193;-57
2023/11/15 06:48:06;;;;;;;5.75;2.08;;;23.10;56.30;;;;;;10368504;28;20299;-51
2023/11/15 06:53:11;;;;;;;3.55;1.58;;;23.20;56.30;;;;;;10361722;28;20208;-48
2023/11/15 06:58:19;;;;;;;5.30;1.95;;;23.20;56.30;;;;;;10360220;28;20221;-47
2023/11/15 07:03:23;;;;;;;7.65;1.77;;;23.20;56.30;;;;;;10365821;28;20668;-47
2023/11/15 07:08:26;;;;;;;8.25;2.10;;;23.10;56.30;;;;;;10363976;28;20793;-47
2023/11/15 07:13:31;;;;;;;7.75;2.08;;;23.10;56.30;;;;;;10364041;28;20582;-42
2023/11/15 07:18:35;;;;;;;8.10;2.10;;;23.00;56.30;;;;;;10359632;28;20221;-47
2023/11/15 07:23:42;;;;;;;5.18;2.10;;;23.00;56.40;;;;;;10365084;28;20205;-55
2023/11/15 07:28:47;;;;;;;7.22;2.30;;;23.00;56.40;;;;;;10369266;28;20245;-52
2023/11/15 07:33:51;;;;;;;3.72;1.98;;;22.90;56.40;;;;;;10365052;28;20201;-43
2023/11/15 07:38:54;;;;;;;3.70;1.67;;;22.90;56.40;;;;;;10373339;28;20236;-47
2023/11/15 07:43:59;;;;;;;5.00;2.03;;;22.90;56.50;;;;;;10372422;28;20279;-47
2023/11/15 07:49:03;;;;;;;4.55;2.28;;;22.80;56.40;;;;;;10370885;28;20709;-44
2023/11/15 07:54:07;;;;;;;7.32;1.98;;;22.80;56.40;;;;;;10364795;28;20204;-52
2023/11/15 07:59:12;;;;;;;5.72;2.00;;;22.80;56.50;;;;;;10364710;28;20692;-48
2023/11/15 08:04:17;;;;;;;5.13;2.10;;;22.80;56.50;;;;;;10355041;28;20245;-48
2023/11/15 08:09:25;;;;;;;4.97;1.80;;;22.70;56.40;;;;;;10370370;28;20695;-51
2023/11/15 08:14:31;;;;;;;5.75;1.85;;;22.70;56.40;;;;;;10376970;28;20755;-45
2023/11/15 08:19:36;;;;;;;4.65;1.90;;;22.70;56.40;;;;;;10371320;28;20255;-45
2023/11/15 08:24:42;;;;;;;3.78;1.80;;;22.70;56.40;;;;;;10373505;28;20251;-46
2023/11/15 08:29:48;;;;;;;4.78;1.85;;;22.70;56.40;;;;;;10370766;28;20709;-48
2023/11/15 08:34:52;;;;;;;5.43;2.25;;;22.70;56.40;;;;;;10377753;28;20259;-49
2023/11/15 08:39:58;;;;;;;2.58;1.50;;;22.70;56.40;;;;;;10389634;28;20200;-55
2023/11/15 08:45:06;;;;;;;4.50;1.90;;;22.70;56.50;;;;;;10383526;28;20668;-44
2023/11/15 08:50:10;;;;;;;4.78;1.92;;;22.60;56.40;;;;;;10363557;28;20272;-48
2023/11/15 08:55:14;;;;;;;4.45;2.03;;;22.70;56.50;;;;;;10355579;28;20711;-44
2023/11/15 09:00:19;;;;;;;4.25;1.95;;;22.70;56.50;;;;;;10363660;28;20197;-43
2023/11/15 09:05:24;;;;;;;3.13;1.80;;;22.60;56.40;;;;;;10363984;28;20641;-43
2023/11/15 09:10:28;;;;;;;3.70;1.90;;;22.60;56.40;;;;;;10364122;28;20298;-43
2023/11/15 09:15:34;;;;;;;3.03;1.80;;;22.60;56.40;;;;;;10366786;28;20304;-51
2023/11/15 09:20:41;;;;;;;5.55;2.33;;;22.60;56.40;;;;;;10372048;28;20236;-46
2023/11/15 09:25:46;;;;;;;3.47;2.10;;;22.60;56.40;;;;;;10368704;28;20279;-44
2023/11/15 09:30:52;;;;;;;5.22;2.58;;;22.60;56.50;;;;;;10370165;28;20243;-47
2023/11/15 09:35:56;;;;;;;4.72;2.35;;;22.60;56.50;;;;;;10372072;28;20233;-48
2023/11/15 09:41:10;;;;;;;4.82;2.90;;;22.60;57.10;;;;;;10367708;28;20196;-45
2023/11/15 09:46:15;;;;;;;4.88;2.65;;;22.70;56.60;;;;;;10360428;28;20645;-48
2023/11/15 09:51:20;;;;;;;4.55;2.83;;;22.60;56.50;;;;;;10357606;28;20641;-43
2023/11/15 09:56:24;;;;;;;3.55;2.65;;;22.60;56.50;;;;;;10361501;28;20217;-47
2023/11/15 10:01:29;;;;;;;4.40;2.55;;;22.60;56.50;;;;;;10363726;28;20200;-45
2023/11/15 10:06:42;;;;;;;3.55;2.50;;;22.70;56.60;;;;;;10373582;28;20262;-45
2023/11/15 10:11:49;;;;;;;5.03;2.83;;;22.60;56.50;;;;;;10366789;28;20221;-47
2023/11/15 10:16:54;;;;;;;6.03;2.80;;;22.60;56.50;;;;;;10362477;28;20229;-48
2023/11/15 10:22:00;;;;;;;4.55;2.88;;;22.60;56.50;;;;;;10354212;28;20197;-46
2023/11/15 10:27:10;;;;;;;4.55;3.03;;;22.60;56.50;;;;;;10356878;28;20218;-45
2023/11/15 10:32:21;;;;;;;9.38;2.97;;;22.60;56.60;;;;;;10361499;28;20271;-47
2023/11/15 10:37:24;;;;;;;9.45;2.97;;;22.60;56.50;;;;;;10366765;28;20220;-44
2023/11/15 10:42:31;;;;;;;4.50;2.75;;;22.70;56.60;;;;;;10360932;28;20294;-47
2023/11/15 10:47:44;;;;;;;10.15;2.47;;;22.70;56.60;;;;;;10363690;28;20220;-43
2023/11/15 10:52:49;;;;;;;6.35;2.53;;;22.60;56.70;;;;;;10361316;28;20249;-43
2023/11/15 10:57:57;;;;;;;7.55;2.78;;;22.60;56.50;;;;;;10381626;28;20731;-46
2023/11/15 11:03:02;;;;;;;4.20;2.45;;;22.60;56.60;;;;;;10388381;28;20197;-45
2023/11/15 11:08:14;;;;;;;4.95;2.47;;;22.60;56.60;;;;;;10376333;28;20225;-52
2023/11/15 11:13:19;;;;;;;5.40;2.58;;;22.60;56.60;;;;;;10385155;28;20256;-44
2023/11/15 11:18:24;;;;;;;3.63;2.30;;;22.60;56.60;;;;;;10375002;28;20229;-47
2023/11/15 11:23:30;;;;;;;5.22;2.40;;;22.60;56.60;;;;;;10384981;28;20208;-44
2023/11/15 11:28:59;;;;;;;3.85;2.70;;;22.60;56.60;;;;;;10383547;28;20574;-42
2023/11/15 11:34:10;;;;;;;5.25;2.50;;;22.60;56.70;;;;;;10397988;28;20204;-42
2023/11/15 11:39:15;;;;;;;3.50;2.25;;;22.60;56.70;;;;;;10373696;28;20217;-44
2023/11/15 11:44:19;;;;;;;3.78;2.30;;;22.70;56.70;;;;;;10380350;28;20201;-47
2023/11/15 11:49:24;;;;;;;5.82;2.20;;;22.60;56.60;;;;;;10383631;28;20652;-46
2023/11/15 11:54:28;;;;;;;3.35;2.20;;;22.60;56.60;;;;;;10388978;28;20656;-46
2023/11/15 11:59:32;;;;;;;4.43;2.08;;;22.60;56.70;;;;;;10379171;28;20274;-43
2023/11/15 12:04:45;;;;;;;4.30;2.50;;;22.70;56.80;;;;;;10384516;28;20219;-45
2023/11/15 12:09:49;;;;;;;4.65;2.10;;;22.70;56.80;;;;;;10387576;28;20888;-46
2023/11/15 12:14:59;;;;;;;5.22;2.13;;;22.70;56.70;;;;;;10388670;28;20737;-51
2023/11/15 12:20:05;;;;;;;7.50;2.50;;;22.70;56.70;;;;;;10383799;28;20200;-44
2023/11/15 12:25:13;;;;;;;4.07;2.22;;;22.70;56.70;;;;;;10368287;28;20255;-46
2023/11/15 12:30:17;;;;;;;4.72;2.22;;;22.70;56.80;;;;;;10362610;28;20766;-47
2023/11/15 12:35:22;;;;;;;6.15;2.50;;;22.70;56.70;;;;;;10371887;28;20248;-51
2023/11/15 12:40:26;;;;;;;4.60;2.30;;;22.60;56.60;;;;;;10384561;28;20567;-49
2023/11/15 12:45:30;;;;;;;3.45;1.90;;;22.60;56.60;;;;;;10369044;28;20718;-48
2023/11/15 12:50:38;;;;;;;3.30;2.08;;;22.60;56.60;;;;;;10380657;28;20650;-44
2023/11/15 12:55:49;;;;;;;4.93;2.30;;;22.60;56.60;;;;;;10376999;28;20296;-46
2023/11/15 13:00:57;;;;;;;4.88;2.20;;;22.60;56.60;;;;;;10376426;28;20800;-43
2023/11/15 13:06:13;;;;;;;4.40;2.20;;;22.60;56.70;;;;;;10374597;28;20615;-49
2023/11/15 13:11:18;;;;;;;5.68;2.22;;;22.60;56.60;;;;;;10380947;28;20578;-48
2023/11/15 13:16:24;;;;;;;4.90;2.20;;;22.60;56.60;;;;;;10373674;28;20239;-47
2023/11/15 13:21:31;;;;;;;3.60;1.92;;;22.60;56.10;;;;;;10385221;28;20201;-44
2023/11/15 13:26:36;;;;;;;3.55;1.98;;;22.60;56.60;;;;;;10379510;28;20704;-49
2023/11/15 13:31:43;;;;;;;5.88;1.73;;;22.60;56.60;;;;;;10382062;28;20277;-48
2023/11/15 13:36:48;;;;;;;4.15;2.20;;;22.60;56.60;;;;;;10383566;28;20248;-48
2023/11/15 13:41:51;;;;;;;3.28;1.95;;;22.60;56.60;;;;;;10375598;28;20333;-45
2023/11/15 13:46:55;;;;;;;2.63;1.80;;;22.60;56.60;;;;;;10367943;28;20228;-47
2023/11/15 13:52:00;;;;;;;5.10;1.70;;;22.60;56.60;;;;;;10364589;28;20639;-48
2023/11/15 13:57:05;;;;;;;4.47;2.30;;;22.60;56.60;;;;;;10368711;28;20936;-45
2023/11/15 14:02:09;;;;;;;3.60;2.50;;;22.60;56.60;;;;;;10366677;28;20274;-47
2023/11/15 14:07:14;;;;;;;4.75;2.58;;;22.60;56.60;;;;;;10387906;28;20228;-48
2023/11/15 14:12:18;;;;;;;4.05;2.15;;;22.60;56.60;;;;;;10374044;28;20758;-44
2023/11/15 14:17:23;;;;;;;3.45;2.17;;;22.60;56.60;;;;;;10380869;28;20219;-45
2023/11/15 14:22:29;;;;;;;5.00;2.08;;;22.60;56.50;;;;;;10378046;28;20271;-45
2023/11/15 14:27:34;;;;;;;5.50;2.38;;;22.60;56.50;;;;;;10373175;28;20213;-44
2023/11/15 14:32:38;;;;;;;7.20;2.30;;;22.60;56.50;;;;;;10381548;28;20248;-44
2023/11/15 14:37:44;;;;;;;4.82;2.20;;;22.60;56.50;;;;;;10383860;28;20243;-48
2023/11/15 14:42:50;;;;;;;5.45;2.33;;;22.60;56.50;;;;;;10371803;28;20197;-44
2023/11/15 14:47:54;;;;;;;3.78;2.05;;;22.60;56.60;;;;;;10372343;28;20278;-46
2023/11/15 14:53:08;;;;;;;3.53;2.17;;;22.60;56.50;;;;;;10362649;28;20267;-45
2023/11/15 14:58:11;;;;;;;6.80;2.20;;;22.60;56.50;;;;;;10350416;28;20221;-46
2023/11/15 15:03:16;;;;;;;3.88;2.00;;;22.60;56.50;;;;;;10342354;28;20263;-46
2023/11/15 15:08:23;;;;;;;3.15;2.25;;;22.60;56.50;;;;;;10362376;28;20295;-46
2023/11/15 15:13:26;;;;;;;3.58;2.00;;;22.60;56.50;;;;;;10355431;28;20294;-44
2023/11/15 15:18:30;;;;;;;4.07;2.33;;;22.60;56.50;;;;;;10381063;28;20278;-47
2023/11/15 15:23:38;;;;;;;2.00;1.80;;;22.60;56.50;;;;;;10360126;28;20233;-45
2023/11/15 15:28:42;;;;;;;3.88;1.90;;;22.60;56.50;;;;;;10381657;28;20221;-48
2023/11/15 15:33:46;;;;;;;2.80;2.20;;;22.60;56.60;;;;;;10379149;28;20251;-49
2023/11/15 15:38:51;;;;;;;2.47;1.98;;;22.60;56.50;;;;;;10377315;28;20225;-46
2023/11/15 15:43:55;;;;;;;3.22;2.00;;;22.60;56.50;;;;;;10368169;28;20202;-45
2023/11/15 15:49:01;;;;;;;2.67;1.80;;;22.60;57.20;;;;;;10364921;28;20297;-47
2023/11/15 15:54:06;;;;;;;2.97;1.73;;;22.60;56.50;;;;;;10373857;28;20674;-45
2023/11/15 15:59:10;;;;;;;3.85;1.80;;;22.50;56.50;;;;;;10367692;28;20404;-46
2023/11/15 16:04:15;;;;;;;7.43;2.25;;;22.60;56.60;;;;;;10369351;28;20216;-47
2023/11/15 16:09:21;;;;;;;4.40;1.92;;;22.60;56.60;;;;;;10376055;28;20282;-43
2023/11/15 16:14:25;;;;;;;4.72;2.20;;;22.60;56.50;;;;;;10385540;28;20229;-46
2023/11/15 16:19:29;;;;;;;3.28;2.05;;;22.50;57.10;;;;;;10360344;28;20736;-54
2023/11/15 16:24:34;;;;;;;8.30;2.35;;;22.60;56.60;;;;;;10367382;28;20209;-47
2023/11/15 16:29:37;;;;;;;28.38;3.97;;;22.70;56.60;;;;;;10342796;28;22313;-48
2023/11/15 16:34:41;;;;;;;6.20;1.95;;;22.70;56.60;;;;;;10364718;28;20693;-52
2023/11/15 16:39:46;;;;;;;3.63;1.70;;;22.60;55.00;;;;;;10360561;28;20256;-49
2023/11/15 16:44:50;;;;;;;5.47;2.00;;;22.10;54.90;;;;;;10367978;28;20255;-53
2023/11/15 16:49:53;;;;;;;4.00;1.85;;;22.00;53.90;;;;;;10381897;28;20231;-48
2023/11/15 16:54:58;;;;;;;3.00;1.48;;;21.80;53.40;;;;;;10341350;28;20708;-49
2023/11/15 17:00:02;;;;;;;4.88;1.95;;;21.80;54.40;;;;;;10363231;28;20205;-50
2023/11/15 17:05:07;;;;;;;3.10;1.60;;;21.90;54.60;;;;;;10361168;28;20228;-50
2023/11/15 17:10:12;;;;;;;2.75;1.73;;;22.00;54.80;;;;;;10368692;28;20205;-49
2023/11/15 17:15:15;;;;;;;3.92;1.70;;;22.10;54.90;;;;;;10364679;28;20700;-46
2023/11/15 17:20:19;;;;;;;4.55;1.90;;;22.20;55.00;;;;;;10355864;28;20205;-51
2023/11/15 17:25:24;;;;;;;5.47;1.73;;;22.30;55.00;;;;;;10366091;28;20263;-53
2023/11/15 17:30:27;;;;;;;8.65;2.45;;;22.40;55.10;;;;;;10359307;28;20263;-51
2023/11/15 17:35:31;;;;;;;13.05;2.63;;;22.50;55.20;;;;;;10363065;28;20252;-53
2023/11/15 17:40:36;;;;;;;11.25;2.30;;;22.50;55.20;;;;;;10377621;28;20291;-54
2023/11/15 17:45:40;;;;;;;7.25;2.15;;;22.50;55.20;;;;;;10383626;28;20217;-53
2023/11/15 17:50:44;;;;;;;6.45;2.03;;;22.50;55.20;;;;;;10371002;28;20213;-54
2023/11/15 17:55:49;;;;;;;5.20;1.80;;;22.50;55.30;;;;;;10378943;28;20248;-55
2023/11/15 18:00:54;;;;;;;8.77;1.90;;;22.50;55.30;;;;;;10380625;28;20208;-55
2023/11/15 18:05:57;;;;;;;9.45;1.90;;;22.50;55.30;;;;;;10382832;28;20232;-51
2023/11/15 18:11:04;;;;;;;4.20;1.65;;;22.50;55.30;;;;;;10370254;28;20200;-55
2023/11/15 18:16:10;;;;;;;5.68;1.88;;;22.50;55.30;;;;;;10394456;28;20224;-53
2023/11/15 18:21:14;;;;;;;5.22;1.92;;;22.50;55.30;;;;;;10390582;28;20204;-55
2023/11/15 18:26:24;;;;;;;6.38;1.63;;;22.50;55.40;;;;;;10367668;28;20709;-54
2023/11/15 18:31:28;;;;;;;3.20;1.33;;;22.50;55.30;;;;;;10384352;28;20209;-52
2023/11/15 18:36:32;;;;;;;4.60;1.83;;;22.50;55.40;;;;;;10383301;28;20778;-52
2023/11/15 18:41:37;;;;;;;2.40;1.83;;;22.50;55.40;;;;;;10370242;28;20209;-50
2023/11/15 18:46:41;;;;;;;3.42;1.60;;;22.50;55.40;;;;;;10379573;28;20220;-54
2023/11/15 18:51:44;;;;;;;8.38;2.00;;;22.50;55.40;;;;;;10385610;28;20235;-53
2023/11/15 18:56:49;;;;;;;7.78;2.00;;;22.50;55.40;;;;;;10382707;28;20770;-54
2023/11/15 19:01:55;;;;;;;11.45;2.15;;;22.50;55.40;;;;;;10373476;28;20201;-51
2023/11/15 19:06:59;;;;;;;6.15;1.70;;;22.50;55.40;;;;;;10365694;28;20279;-56
2023/11/15 19:12:05;;;;;;;6.13;2.30;;;22.50;55.40;;;;;;10356462;28;20259;-56
2023/11/15 19:17:09;;;;;;;9.85;2.10;;;22.50;55.40;;;;;;10361464;28;20225;-55
2023/11/15 19:22:12;;;;;;;5.07;2.25;;;22.50;55.40;;;;;;10354183;28;20274;-53
2023/11/15 19:27:17;;;;;;;4.68;1.88;;;22.50;55.40;;;;;;10361616;28;20256;-54
2023/11/15 19:32:21;;;;;;;4.82;1.90;;;22.50;55.40;;;;;;10362822;28;20244;-53
2023/11/15 19:37:26;;;;;;;4.47;1.60;;;22.50;55.40;;;;;;10370727;28;20224;-51
2023/11/15 19:42:33;;;;;;;5.03;1.85;;;22.50;55.40;;;;;;10361391;28;20196;-52
2023/11/15 19:47:37;;;;;;;3.45;1.50;;;22.50;55.40;;;;;;10349395;28;20247;-51
2023/11/15 19:52:42;;;;;;;4.32;1.73;;;22.50;55.40;;;;;;10373381;28;20318;-51
2023/11/15 19:57:47;;;;;;;4.50;1.98;;;22.50;55.40;;;;;;10373598;28;20240;-53
2023/11/15 20:02:52;;;;;;;4.15;1.42;;;22.60;55.40;;;;;;10363162;28;20201;-53
2023/11/15 20:07:55;;;;;;;2.70;1.52;;;22.50;55.30;;;;;;10376395;28;20229;-52
2023/11/15 20:13:01;;;;;;;6.28;1.80;;;22.60;55.40;;;;;;10369223;28;20298;-53
2023/11/15 20:18:04;;;;;;;5.57;1.92;;;22.60;55.40;;;;;;10374597;28;20220;-52
2023/11/15 20:23:08;;;;;;;6.28;2.03;;;22.60;55.30;;;;;;10384574;28;20208;-53
2023/11/15 20:28:16;;;;;;;6.90;2.63;;;22.60;55.30;;;;;;10378465;28;20291;-51
2023/11/15 20:33:19;;;;;;;5.00;2.25;;;22.60;55.30;;;;;;10368702;28;20758;-49
2023/11/15 20:38:23;;;;;;;3.65;2.58;;;22.60;55.40;;;;;;10384330;28;20246;-51
2023/11/15 20:43:29;;;;;;;5.28;2.20;;;22.60;55.30;;;;;;10366725;28;20220;-44
2023/11/15 20:48:33;;;;;;;4.47;2.10;;;22.50;55.20;;;;;;10381480;28;20216;-45
2023/11/15 20:53:37;;;;;;;4.97;2.40;;;22.60;55.30;;;;;;10378693;28;20285;-48
2023/11/15 20:58:42;;;;;;;5.72;2.42;;;22.50;55.30;;;;;;10378397;28;20268;-44
2023/11/15 21:03:46;;;;;;;6.85;2.55;;;22.50;55.30;;;;;;10371700;28;20205;-51
2023/11/15 21:08:50;;;;;;;3.35;2.22;;;22.50;55.30;;;;;;10374476;28;20216;-58
2023/11/15 21:13:55;;;;;;;5.15;2.20;;;22.50;55.90;;;;;;10367686;28;20248;-55
2023/11/15 21:19:03;;;;;;;6.15;2.88;;;22.60;55.30;;;;;;10372315;28;20233;-52
2023/11/15 21:24:08;;;;;;;6.47;2.50;;;22.60;55.40;;;;;;10354418;28;20226;-55
2023/11/15 21:29:13;;;;;;;5.15;2.00;;;22.60;55.30;;;;;;10357335;28;20253;-51
2023/11/15 21:34:17;;;;;;;4.18;1.83;;;22.60;55.30;;;;;;10342356;28;21969;-52
2023/11/15 21:39:21;;;;;;;3.35;1.90;;;22.50;55.30;;;;;;10359185;28;20240;-50
2023/11/15 21:44:25;;;;;;;5.40;2.28;;;22.50;55.30;;;;;;10385797;28;20197;-54
2023/11/15 21:49:29;;;;;;;4.38;2.13;;;22.50;55.30;;;;;;10385414;28;20769;-55
2023/11/15 21:54:33;;;;;;;3.58;2.30;;;22.50;55.30;;;;;;10372372;28;20311;-54
2023/11/15 21:59:38;;;;;;;5.07;2.28;;;22.50;55.90;;;;;;10391745;28;20225;-52
2023/11/15 22:04:42;;;;;;;3.38;1.90;;;22.50;55.30;;;;;;10380786;28;20251;-54
2023/11/15 22:09:46;;;;;;;3.78;2.25;;;22.50;55.30;;;;;;10389394;28;20224;-54
2023/11/15 22:14:50;;;;;;;3.90;1.90;;;22.50;55.20;;;;;;10372238;28;20313;-52
2023/11/15 22:19:54;;;;;;;3.40;2.13;;;22.50;55.30;;;;;;10365198;28;20243;-56
2023/11/15 22:24:58;;;;;;;4.20;1.90;;;22.50;55.20;;;;;;10362702;28;20332;-49
2023/11/15 22:30:03;;;;;;;2.53;1.80;;;22.50;55.20;;;;;;10383431;28;20277;-50
2023/11/15 22:35:09;;;;;;;4.32;2.22;;;22.50;55.20;;;;;;10378116;28;20598;-54
2023/11/15 22:40:13;;;;;;;3.67;2.30;;;22.50;55.20;;;;;;10381955;28;20201;-52
2023/11/15 22:45:19;;;;;;;2.72;1.75;;;22.50;55.20;;;;;;10382741;28;21276;-52
2023/11/15 22:50:23;;;;;;;2.90;1.58;;;22.50;55.20;;;;;;10326917;28;1092819;-50
2023/11/15 22:55:26;;;;;;;3.38;1.90;;;22.50;55.20;;;;;;10381437;28;20287;-52
2023/11/15 23:00:33;;;;;;;3.88;1.90;;;22.50;55.20;;;;;;10350833;28;20265;-50
2023/11/15 23:05:38;;;;;;;3.58;1.90;;;22.50;55.20;;;;;;10380055;28;20273;-54
2023/11/15 23:10:42;;;;;;;3.78;1.95;;;22.50;55.20;;;;;;10386793;28;20620;-56
2023/11/15 23:15:48;;;;;;;3.92;2.05;;;22.50;55.20;;;;;;10384731;28;20228;-50
2023/11/15 23:20:54;;;;;;;3.33;2.08;;;22.50;55.20;;;;;;10387554;28;20201;-53
2023/11/15 23:26:00;;;;;;;3.25;1.77;;;22.50;55.10;;;;;;10401081;28;20263;-55
2023/11/15 23:31:06;;;;;;;3.60;1.70;;;22.40;55.10;;;;;;10393827;28;20201;-54
2023/11/15 23:36:10;;;;;;;4.13;1.65;;;22.50;55.10;;;;;;10380555;28;20813;-54
2023/11/15 23:41:14;;;;;;;3.88;2.00;;;22.40;55.10;;;;;;10381416;28;20275;-52
2023/11/15 23:46:19;;;;;;;2.60;1.67;;;22.40;55.10;;;;;;10385081;28;20221;-53
2023/11/15 23:51:22;;;;;;;2.97;1.98;;;22.40;55.70;;;;;;10381756;28;20216;-53
2023/11/15 23:56:26;;;;;;;3.25;1.85;;;22.50;55.70;;;;;;10389552;28;20255;-55
